Time;durP1;ratioP1;P1;durP2;ratioP2;P2;SDS_P1;SDS_P2;PMS_P1;PMS_P2;Temp;Humidity;BMP_temperature;BMP_pressure;BME280_temperature;BME280_humidity;BME280_pressure;Samples;Min_cycle;Max_cycle;Signal;HPM_P1;HPM_P2
2021/03/20 00:01:54;;;;;;;39.05;24.08;;;;;;;5.98;100.00;101337.84;4905822;29;20024;-74
2021/03/20 00:04:39;;;;;;;40.38;24.05;;;;;;;5.96;100.00;101327.41;4919605;29;20056;-74
2021/03/20 00:07:25;;;;;;;42.35;24.80;;;;;;;5.76;100.00;101335.78;4918095;29;20061;-74
2021/03/20 00:10:14;;;;;;;38.95;23.35;;;;;;;5.76;100.00;101333.19;4919309;29;20024;-74
2021/03/20 00:13:00;;;;;;;42.08;25.60;;;;;;;5.55;100.00;101333.81;4905764;29;20226;-73
2021/03/20 00:15:45;;;;;;;38.20;24.15;;;;;;;5.89;100.00;101333.38;4919794;29;20449;-74
2021/03/20 00:18:31;;;;;;;40.22;24.13;;;;;;;5.38;100.00;101338.78;4905638;29;20032;-75
2021/03/20 00:21:18;;;;;;;39.92;24.77;;;;;;;5.77;100.00;101345.31;4919649;29;20111;-74
2021/03/20 00:24:05;;;;;;;38.67;23.27;;;;;;;5.66;100.00;101349.56;4919045;29;20032;-73
2021/03/20 00:26:50;;;;;;;40.83;24.20;;;;;;;5.44;100.00;101353.59;4905493;29;20127;-75
2021/03/20 00:29:36;;;;;;;42.53;24.42;;;;;;;4.83;100.00;101351.81;4918454;29;20050;-74
2021/03/20 00:32:22;;;;;;;38.88;25.27;;;;;;;4.51;100.00;101345.25;4904236;29;20077;-73
2021/03/20 00:35:09;;;;;;;43.65;25.92;;;;;;;4.49;100.00;101339.16;4917650;29;20023;-72
2021/03/20 00:37:55;;;;;;;41.33;24.35;;;;;;;4.58;100.00;101341.03;4905556;29;20088;-73
2021/03/20 00:40:41;;;;;;;42.40;26.13;;;;;;;4.80;100.00;101341.41;4918577;29;20040;-75
2021/03/20 00:43:27;;;;;;;40.88;25.08;;;;;;;4.72;100.00;101343.03;4905280;29;20083;-74
2021/03/20 00:46:13;;;;;;;44.45;25.38;;;;;;;4.74;100.00;101340.41;4918629;29;20082;-74
2021/03/20 00:48:59;;;;;;;41.15;26.15;;;;;;;5.10;100.00;101336.66;4904289;29;20118;-74
2021/03/20 00:51:45;;;;;;;40.65;24.67;;;;;;;5.23;100.00;101333.38;4906175;29;20489;-74
2021/03/20 00:54:30;;;;;;;42.53;24.50;;;;;;;4.52;100.00;101333.16;4917500;29;20402;-74
2021/03/20 00:57:17;;;;;;;41.70;24.67;;;;;;;4.22;100.00;101332.63;4917542;29;20043;-74
2021/03/20 01:00:14;;;;;;;40.33;24.08;;;;;;;4.41;100.00;101337.28;4917876;29;20048;-74
2021/03/20 01:03:00;;;;;;;38.65;23.63;;;;;;;4.49;100.00;101335.69;4905128;29;20046;-73
2021/03/20 01:05:46;;;;;;;41.13;24.55;;;;;;;4.59;100.00;101333.25;4918263;29;20119;-73
2021/03/20 01:08:32;;;;;;;38.50;24.58;;;;;;;5.01;100.00;101339.13;4917865;29;20059;-73
2021/03/20 01:11:18;;;;;;;40.25;24.33;;;;;;;4.63;100.00;101337.66;4918868;29;20039;-74
2021/03/20 01:14:04;;;;;;;40.92;24.73;;;;;;;5.15;100.00;101344.53;4918414;29;20032;-73
2021/03/20 01:16:50;;;;;;;38.20;23.40;;;;;;;5.39;100.00;101340.53;4918466;29;20047;-73
2021/03/20 01:19:36;;;;;;;39.00;23.73;;;;;;;5.29;100.00;101333.47;4917762;29;20472;-74
2021/03/20 01:22:21;;;;;;;37.92;23.05;;;;;;;5.48;100.00;101334.59;4917933;29;20382;-74
2021/03/20 01:25:08;;;;;;;39.25;24.80;;;;;;;5.56;100.00;101342.47;4904752;29;20051;-74
2021/03/20 01:27:54;;;;;;;34.08;22.25;;;;;;;5.33;100.00;101345.66;4917892;29;20036;-75
2021/03/20 01:30:42;;;;;;;34.67;21.65;;;;;;;5.44;100.00;101351.00;4917036;29;20373;-74
2021/03/20 01:33:29;;;;;;;36.95;21.98;;;;;;;5.22;100.00;101356.72;4917765;29;20099;-73
2021/03/20 01:36:14;;;;;;;33.72;20.70;;;;;;;5.48;100.00;101355.38;4917605;29;20032;-74
2021/03/20 01:39:00;;;;;;;35.67;22.13;;;;;;;5.12;100.00;101368.75;4916682;29;20036;-75
2021/03/20 01:41:46;;;;;;;38.42;22.90;;;;;;;4.91;100.00;101365.78;4917424;29;20028;-74
2021/03/20 01:44:32;;;;;;;35.55;22.40;;;;;;;5.06;100.00;101368.63;4917182;29;20135;-73
2021/03/20 01:47:17;;;;;;;37.92;22.38;;;;;;;5.05;100.00;101368.59;4917591;29;20095;-74
2021/03/20 01:50:04;;;;;;;35.50;21.05;;;;;;;4.24;100.00;101369.84;4917636;29;20107;-75
2021/03/20 01:52:54;;;;;;;38.88;22.98;;;;;;;4.33;100.00;101378.66;4917933;29;20453;-74
2021/03/20 01:55:40;;;;;;;37.83;22.15;;;;;;;4.23;100.00;101371.53;4904629;29;20035;-74
2021/03/20 01:58:28;;;;;;;36.30;21.55;;;;;;;4.73;100.00;101372.41;4917603;29;20092;-74
2021/03/20 02:01:36;;;;;;;38.63;22.27;;;;;;;4.46;100.00;101379.75;4904283;29;20024;-74
2021/03/20 02:04:22;;;;;;;34.35;21.45;;;;;;;4.79;100.00;101378.59;4903099;29;20055;-74
2021/03/20 02:07:08;;;;;;;33.20;21.63;;;;;;;5.22;100.00;101382.72;4917049;29;20055;-74
2021/03/20 02:09:54;;;;;;;35.53;22.25;;;;;;;5.33;100.00;101388.94;4919376;29;20421;-74
2021/03/20 02:12:44;;;;;;;35.72;21.05;;;;;;;5.19;100.00;101386.13;4921053;29;20036;-75
2021/03/20 02:15:45;;;;;;;35.47;21.77;;;;;;;5.54;100.00;101390.97;4921255;29;20032;-74
2021/03/20 02:19:00;;;;;;;38.00;22.42;;;;;;;5.19;100.00;101386.13;4921316;29;20334;-74
2021/03/20 02:22:03;;;;;;;36.17;21.13;;;;;;;5.38;100.00;101391.63;4921762;29;20405;-74
2021/03/20 02:25:30;;;;;;;34.67;21.55;;;;;;;5.46;100.00;101390.00;4921123;29;20028;-74
2021/03/20 02:28:32;;;;;;;35.25;20.85;;;;;;;5.48;100.00;101399.56;4908687;29;20470;-75
2021/03/20 02:31:33;;;;;;;32.33;20.23;;;;;;;5.61;100.00;101397.97;4920635;29;20103;-74
2021/03/20 02:34:47;;;;;;;30.98;20.10;;;;;;;5.40;100.00;101395.97;4907850;29;20028;-74
2021/03/20 02:37:35;;;;;;;35.10;22.13;;;;;;;5.00;100.00;101394.53;4920527;29;20020;-74
2021/03/20 02:40:53;;;;;;;36.17;22.55;;;;;;;5.25;100.00;101399.22;4921678;29;20036;-74
2021/03/20 02:44:00;;;;;;;37.92;22.10;;;;;;;5.33;100.00;101400.22;4920222;29;20059;-74
2021/03/20 02:46:58;;;;;;;36.72;22.15;;;;;;;5.39;100.00;101410.69;4921627;29;20032;-74
2021/03/20 02:49:52;;;;;;;33.47;21.35;;;;;;;5.23;100.00;101402.66;4906397;29;20064;-74
2021/03/20 02:53:03;;;;;;;34.67;22.15;;;;;;;4.92;100.00;101405.63;4907784;29;20119;-74
2021/03/20 02:55:55;;;;;;;35.00;22.75;;;;;;;5.08;100.00;101412.81;4921138;29;20028;-73
2021/03/20 02:58:53;;;;;;;36.55;23.25;;;;;;;5.29;100.00;101413.13;4920891;29;20107;-74
2021/03/20 03:01:42;;;;;;;36.33;22.75;;;;;;;5.27;100.00;101414.84;4920669;29;20028;-74
2021/03/20 03:04:34;;;;;;;35.55;21.90;;;;;;;4.81;100.00;101417.53;4920412;29;20063;-74
2021/03/20 03:07:28;;;;;;;31.70;19.83;;;;;;;4.94;100.00;101414.28;4906033;29;20054;-74
2021/03/20 03:10:24;;;;;;;32.10;20.90;;;;;;;4.90;100.00;101415.09;4920368;29;20035;-74
2021/03/20 03:13:32;;;;;;;33.40;20.65;;;;;;;5.01;100.00;101414.44;4906536;29;20127;-75
2021/03/20 03:16:28;;;;;;;30.33;20.02;;;;;;;4.90;100.00;101418.56;4907417;29;20426;-74
2021/03/20 03:19:23;;;;;;;30.58;19.85;;;;;;;5.05;100.00;101405.84;4919634;29;20095;-74
2021/03/20 03:22:16;;;;;;;31.42;19.38;;;;;;;4.82;100.00;101416.69;4919670;29;20114;-73
2021/03/20 03:25:08;;;;;;;35.40;20.90;;;;;;;4.77;100.00;101416.63;4919541;29;20042;-74
2021/03/20 03:27:57;;;;;;;33.00;20.52;;;;;;;4.70;100.00;101419.06;4919325;29;20024;-74
2021/03/20 03:30:43;;;;;;;31.60;20.48;;;;;;;5.04;100.00;101427.47;4919693;29;20051;-73
2021/03/20 03:33:36;;;;;;;34.03;21.17;;;;;;;5.06;100.00;101438.75;4920179;29;20036;-75
2021/03/20 03:36:22;;;;;;;35.42;20.90;;;;;;;4.97;100.00;101438.63;4918806;29;20042;-74
2021/03/20 03:39:28;;;;;;;30.30;19.05;;;;;;;5.16;100.00;101426.78;4906881;29;20123;-74
2021/03/20 03:42:16;;;;;;;31.67;20.13;;;;;;;4.78;100.00;101433.94;4906743;29;20456;-74
2021/03/20 03:45:06;;;;;;;35.95;20.55;;;;;;;3.98;100.00;101428.97;4919523;29;20048;-74
2021/03/20 03:47:52;;;;;;;34.10;21.00;;;;;;;3.97;100.00;101434.13;4919614;29;20035;-73
2021/03/20 03:50:43;;;;;;;34.08;21.65;;;;;;;4.09;100.00;101431.75;4919404;29;20020;-73
2021/03/20 03:53:29;;;;;;;35.47;22.38;;;;;;;4.47;100.00;101433.38;4919321;29;20102;-74
2021/03/20 03:56:45;;;;;;;35.95;21.02;;;;;;;3.83;100.00;101435.56;4919347;29;20027;-73
2021/03/20 03:59:58;;;;;;;32.45;21.08;;;;;;;3.83;100.00;101436.44;4905863;29;20245;-74
2021/03/20 04:02:53;;;;;;;36.25;21.60;;;;;;;3.78;100.00;101445.81;4919691;29;20063;-73
2021/03/20 04:05:54;;;;;;;41.08;23.55;;;;;;;3.64;100.00;101449.84;4919412;29;20131;-74
2021/03/20 04:08:44;;;;;;;37.90;23.25;;;;;;;3.46;100.00;101446.81;4905600;29;20163;-73
2021/03/20 04:11:49;;;;;;;40.33;22.80;;;;;;;3.09;100.00;101444.22;4919749;29;20028;-74
2021/03/20 04:14:40;;;;;;;40.03;23.00;;;;;;;3.12;100.00;101441.72;4918592;29;20079;-73
2021/03/20 04:17:55;;;;;;;38.88;24.63;;;;;;;3.47;100.00;101450.31;4919021;29;20027;-73
2021/03/20 04:20:50;;;;;;;37.42;22.77;;;;;;;3.92;100.00;101465.16;4918827;29;20028;-74
2021/03/20 04:23:45;;;;;;;39.17;22.13;;;;;;;3.85;100.00;101452.00;4918919;29;20039;-74
2021/03/20 04:26:46;;;;;;;40.67;23.63;;;;;;;3.40;100.00;101456.19;4918752;29;20035;-73
2021/03/20 04:29:41;;;;;;;38.10;23.38;;;;;;;3.35;100.00;101461.28;4918590;29;20051;-73
2021/03/20 04:32:40;;;;;;;39.03;23.45;;;;;;;3.36;100.00;101464.72;4917681;29;20095;-74
2021/03/20 04:35:36;;;;;;;39.50;23.15;;;;;;;3.64;100.00;101460.22;4918969;29;20032;-74
2021/03/20 04:38:24;;;;;;;39.85;22.90;;;;;;;3.94;100.00;101455.66;4918838;29;20032;-74
2021/03/20 04:41:10;;;;;;;39.47;23.95;;;;;;;4.18;100.00;101463.94;4918013;29;20059;-73
2021/03/20 04:43:57;;;;;;;39.58;23.77;;;;;;;4.38;100.00;101467.81;4905640;29;20044;-75
2021/03/20 04:46:44;;;;;;;38.25;23.02;;;;;;;4.33;100.00;101464.25;4918948;29;20213;-74
2021/03/20 04:49:39;;;;;;;41.72;24.85;;;;;;;4.23;100.00;101467.50;4918285;29;20099;-74
2021/03/20 04:52:36;;;;;;;47.05;27.88;;;;;;;4.02;100.00;101468.81;4906021;29;20083;-75
2021/03/20 04:55:29;;;;;;;51.38;29.38;;;;;;;4.14;100.00;101471.66;5111889;27;20334;-74
2021/03/20 04:58:41;;;;;;;44.17;28.45;;;;;;;3.99;100.00;101472.19;5131451;28;20511;-73
2021/03/20 05:01:54;;;;;;;46.83;27.95;;;;;;;4.41;100.00;101465.28;5131398;28;20085;-74
2021/03/20 05:04:44;;;;;;;48.53;28.95;;;;;;;3.93;100.00;101472.06;5111945;28;20023;-73
2021/03/20 05:07:32;;;;;;;47.75;29.85;;;;;;;4.03;100.00;101471.41;5111032;28;20034;-74
2021/03/20 05:10:33;;;;;;;48.78;27.85;;;;;;;3.42;100.00;101476.09;5111198;28;20448;-73
2021/03/20 05:13:45;;;;;;;47.70;28.48;;;;;;;4.05;100.00;101492.19;5096095;28;20024;-74
2021/03/20 05:16:37;;;;;;;47.65;28.58;;;;;;;4.45;100.00;101487.84;5095990;28;20109;-74
2021/03/20 05:19:25;;;;;;;46.85;28.60;;;;;;;4.50;100.00;101487.91;5110807;28;20110;-75
2021/03/20 05:22:27;;;;;;;47.55;27.27;;;;;;;4.29;100.00;101497.88;5111431;28;20384;-74
2021/03/20 05:25:15;;;;;;;42.00;25.38;;;;;;;3.94;100.00;101496.28;5110651;28;20027;-73
2021/03/20 05:28:01;;;;;;;59.58;30.80;;;;;;;3.73;100.00;101496.69;5110421;28;20036;-73
2021/03/20 05:30:46;;;;;;;45.15;26.55;;;;;;;4.18;100.00;101500.25;5111943;28;20028;-72
2021/03/20 05:33:34;;;;;;;48.25;27.90;;;;;;;4.05;100.00;101495.66;5111703;28;20024;-73
2021/03/20 05:36:19;;;;;;;41.80;26.45;;;;;;;4.10;100.00;101491.44;5095243;28;20032;-73
2021/03/20 05:39:05;;;;;;;50.25;27.92;;;;;;;4.30;100.00;101494.47;5118265;28;20082;-73
2021/03/20 05:42:16;;;;;;;48.45;28.00;;;;;;;4.21;100.00;101495.13;5115977;28;20047;-73
2021/03/20 05:45:27;;;;;;;52.55;30.10;;;;;;;4.10;100.00;101496.63;5111857;28;20016;-71
2021/03/20 05:48:23;;;;;;;48.80;28.88;;;;;;;4.31;100.00;101498.78;5114086;28;20114;-72
2021/03/20 05:51:51;;;;;;;42.40;25.60;;;;;;;4.41;100.00;101504.19;5113868;28;20356;-73
2021/03/20 05:54:50;;;;;;;47.28;27.10;;;;;;;4.27;100.00;101509.94;5109987;28;20109;-73
2021/03/20 05:58:26;;;;;;;49.58;27.13;;;;;;;4.87;100.00;101503.34;5111091;28;20034;-74
2021/03/20 06:01:21;;;;;;;43.00;26.10;;;;;;;4.83;100.00;101499.78;5099326;28;20073;-71
2021/03/20 06:04:30;;;;;;;41.58;24.48;;;;;;;5.09;100.00;101502.84;5111227;28;20024;-72
2021/03/20 06:07:53;;;;;;;38.88;24.20;;;;;;;5.33;100.00;101509.34;5097205;28;20454;-73
2021/03/20 06:10:43;;;;;;;40.10;23.10;;;;;;;5.13;100.00;101515.03;5096583;28;20371;-73
2021/03/20 06:13:53;;;;;;;35.97;22.77;;;;;;;5.18;100.00;101518.56;5095032;28;20032;-71
2021/03/20 06:17:05;;;;;;;37.50;22.33;;;;;;;5.22;100.00;101520.38;5097727;28;20028;-73
2021/03/20 06:20:09;;;;;;;37.85;22.73;;;;;;;5.44;100.00;101517.31;5095728;28;20048;-73
2021/03/20 06:23:01;;;;;;;36.10;22.42;;;;;;;5.47;100.00;101521.66;5096998;28;20415;-73
2021/03/20 06:25:52;;;;;;;35.60;21.95;;;;;;;5.46;100.00;101520.78;5096394;28;20028;-73
2021/03/20 06:28:47;;;;;;;35.20;21.77;;;;;;;5.47;100.00;101521.66;5096883;28;20475;-73
2021/03/20 06:31:42;;;;;;;40.10;21.85;;;;;;;5.14;100.00;101509.88;5094581;28;20062;-73
2021/03/20 06:34:52;;;;;;;34.90;21.90;;;;;;;5.53;100.00;101522.63;5097022;28;20424;-73
2021/03/20 06:37:41;;;;;;;33.60;20.30;;;;;;;6.12;100.00;101523.53;5097459;28;20024;-73
2021/03/20 06:40:54;;;;;;;33.05;21.38;;;;;;;5.88;100.00;101525.78;5095424;28;20082;-73
2021/03/20 06:43:46;;;;;;;34.15;21.55;;;;;;;5.60;100.00;101528.78;5096095;28;20078;-73
2021/03/20 06:46:34;;;;;;;32.53;20.90;;;;;;;5.95;100.00;101530.22;5081160;28;20027;-73
2021/03/20 06:49:32;;;;;;;32.95;21.35;;;;;;;5.65;100.00;101534.94;5081365;28;20120;-74
2021/03/20 06:52:20;;;;;;;32.10;21.55;;;;;;;5.80;100.00;101530.84;5096581;28;20377;-73
2021/03/20 06:55:21;;;;;;;32.92;20.85;;;;;;;5.95;100.00;101532.84;5095880;28;20101;-73
2021/03/20 06:58:19;;;;;;;35.67;21.27;;;;;;;6.25;100.00;101541.03;5098230;28;20024;-73
2021/03/20 07:01:26;;;;;;;35.30;21.63;;;;;;;6.38;100.00;101535.16;5097026;28;20506;-73
2021/03/20 07:04:21;;;;;;;37.85;21.80;;;;;;;6.38;100.00;101530.81;5096947;28;20497;-72
2021/03/20 07:07:17;;;;;;;34.95;22.08;;;;;;;6.40;100.00;101531.72;5096024;28;20023;-72
2021/03/20 07:10:30;;;;;;;35.28;21.63;;;;;;;6.63;100.00;101532.84;5082780;28;20441;-74
2021/03/20 07:13:26;;;;;;;33.08;21.35;;;;;;;6.47;100.00;101530.91;5094530;28;20020;-72
2021/03/20 07:16:17;;;;;;;33.22;21.75;;;;;;;6.28;100.00;101543.69;5096262;28;20064;-72
2021/03/20 07:19:03;;;;;;;31.00;20.52;;;;;;;6.17;100.00;101542.66;5095177;28;20028;-74
2021/03/20 07:21:57;;;;;;;34.80;22.05;;;;;;;5.82;100.00;101549.13;5095462;28;20028;-73
2021/03/20 07:24:44;;;;;;;34.08;21.42;;;;;;;5.96;100.00;101556.28;5093934;28;20079;-72
2021/03/20 07:27:39;;;;;;;34.42;21.10;;;;;;;6.17;100.00;101561.75;5094426;28;20368;-73
2021/03/20 07:30:31;;;;;;;36.80;23.20;;;;;;;5.86;100.00;101559.56;5095603;28;20086;-74
2021/03/20 07:33:40;;;;;;;32.92;20.98;;;;;;;6.43;100.00;101568.16;5080476;28;20024;-74
2021/03/20 07:36:32;;;;;;;34.80;22.08;;;;;;;6.47;100.00;101574.31;5084501;28;20040;-73
2021/03/20 07:39:23;;;;;;;37.58;22.20;;;;;;;6.61;100.00;101572.72;5080214;28;20044;-73
2021/03/20 07:42:39;;;;;;;33.67;21.15;;;;;;;6.99;100.00;101571.44;5095156;28;20422;-73
2021/03/20 07:45:49;;;;;;;35.15;22.05;;;;;;;7.04;100.00;101575.84;5095535;28;20077;-73
2021/03/20 07:48:35;;;;;;;34.83;22.92;;;;;;;6.76;100.00;101575.53;5079539;28;20028;-75
2021/03/20 07:51:21;;;;;;;32.60;22.17;;;;;;;7.81;100.00;101576.53;5094707;28;20032;-77
2021/03/20 07:54:20;;;;;;;33.72;22.00;;;;;;;7.87;100.00;101581.78;5094634;28;20058;-75
2021/03/20 07:57:17;;;;;;;34.97;22.45;;;;;;;7.98;100.00;101586.22;5095103;28;20032;-75
2021/03/20 08:00:20;;;;;;;38.45;22.52;;;;;;;7.32;100.00;101585.66;5094257;28;20034;-75
2021/03/20 08:03:14;;;;;;;32.88;21.60;;;;;;;8.17;100.00;101585.50;5094834;28;20024;-74
2021/03/20 08:06:15;;;;;;;38.88;22.70;;;;;;;8.22;100.00;101582.91;5079950;28;20457;-75
2021/03/20 08:09:12;;;;;;;35.03;22.23;;;;;;;8.53;100.00;101583.06;5094738;28;20433;-75
2021/03/20 08:11:58;;;;;;;30.63;20.75;;;;;;;8.67;100.00;101586.63;5093620;28;20020;-75
2021/03/20 08:14:55;;;;;;;32.92;22.17;;;;;;;8.49;100.00;101590.91;5092864;28;20028;-73
2021/03/20 08:17:40;;;;;;;33.67;22.48;;;;;;;8.63;100.00;101584.88;5094640;28;20084;-73
2021/03/20 08:20:55;;;;;;;32.17;22.63;;;;;;;8.93;100.00;101584.13;5093400;28;20024;-72
2021/03/20 08:23:55;;;;;;;35.72;23.55;;;;;;;8.88;100.00;101586.72;5080005;28;20407;-72
2021/03/20 08:27:22;;;;;;;35.13;22.58;;;;;;;8.68;100.00;101590.13;5094448;28;20115;-71
2021/03/20 08:30:23;;;;;;;33.47;20.35;;;;;;;8.96;100.00;101581.53;5079663;28;20035;-74
2021/03/20 08:33:15;;;;;;;35.53;23.30;;;;;;;8.98;100.00;101577.16;5079820;28;20024;-75
2021/03/20 08:36:30;;;;;;;30.45;20.90;;;;;;;9.17;100.00;101576.34;5093723;28;20456;-74
2021/03/20 08:39:49;;;;;;;28.40;19.40;;;;;;;9.54;100.00;101572.88;5079382;28;20157;-73
2021/03/20 08:42:58;;;;;;;29.23;19.08;;;;;;;9.25;100.00;101570.22;5093887;28;20016;-75
2021/03/20 08:46:11;;;;;;;28.15;20.27;;;;;;;10.04;100.00;101576.31;5093893;28;20032;-74
2021/03/20 08:49:00;;;;;;;29.75;20.70;;;;;;;9.14;100.00;101571.09;5093565;28;20059;-74
2021/03/20 08:52:19;;;;;;;28.67;20.20;;;;;;;9.69;100.00;101571.13;5079561;28;20032;-74
2021/03/20 08:55:21;;;;;;;33.08;21.88;;;;;;;10.07;100.00;101571.13;5092379;28;20112;-74
2021/03/20 08:58:29;;;;;;;28.52;19.67;;;;;;;10.29;100.00;101571.97;5093516;28;20027;-74
2021/03/20 09:01:56;;;;;;;27.33;19.27;;;;;;;10.36;100.00;101566.69;5078930;28;20472;-74
2021/03/20 09:04:43;;;;;;;30.02;20.35;;;;;;;10.86;100.00;101556.88;5093786;28;20028;-74
2021/03/20 09:07:40;;;;;;;26.10;18.42;;;;;;;11.26;100.00;101561.00;5093166;28;20036;-74
2021/03/20 09:10:34;;;;;;;29.88;20.17;;;;;;;11.39;100.00;101567.91;5094449;28;20024;-74
2021/03/20 09:13:37;;;;;;;24.33;17.90;;;;;;;10.97;98.64;101573.41;5078634;28;20032;-74
2021/03/20 09:16:39;;;;;;;24.58;17.40;;;;;;;11.48;93.59;101583.56;5079281;28;20028;-73
2021/03/20 09:19:29;;;;;;;24.63;17.08;;;;;;;11.39;92.65;101575.78;5093370;28;20020;-74
2021/03/20 09:22:21;;;;;;;24.70;18.45;;;;;;;10.21;96.58;101566.75;5078873;28;20468;-75
2021/03/20 09:25:19;;;;;;;23.60;18.25;;;;;;;10.57;98.59;101563.97;5093159;28;20028;-75
2021/03/20 09:28:48;;;;;;;29.13;20.55;;;;;;;10.85;100.00;101560.34;5093328;28;20062;-72
2021/03/20 09:31:47;;;;;;;27.92;19.98;;;;;;;10.93;100.00;101560.34;5080205;28;20032;-73
2021/03/20 09:34:54;;;;;;;27.95;19.77;;;;;;;10.86;100.00;101559.50;5092651;28;20115;-72
2021/03/20 09:37:50;;;;;;;22.60;16.95;;;;;;;10.85;97.33;101564.75;5079499;28;20093;-73
2021/03/20 09:40:47;;;;;;;28.77;19.50;;;;;;;11.44;97.50;101566.09;5093756;28;20028;-73
2021/03/20 09:43:35;;;;;;;31.67;16.38;;;;;;;10.71;92.23;101572.66;5097267;28;20146;-73
2021/03/20 09:46:39;;;;;;;26.42;17.90;;;;;;;10.59;92.77;101575.34;5089365;28;20514;-72
2021/03/20 09:49:25;;;;;;;27.25;17.42;;;;;;;11.01;91.67;101562.00;5097423;28;20032;-74
2021/03/20 09:52:30;;;;;;;25.45;16.63;;;;;;;10.95;91.91;101563.81;5095654;28;20376;-76
2021/03/20 09:55:28;;;;;;;24.05;17.05;;;;;;;10.55;92.71;101563.13;5081372;28;20040;-72
2021/03/20 09:58:20;;;;;;;36.97;20.95;;;;;;;10.78;92.91;101556.03;5096862;28;20024;-73
2021/03/20 10:01:07;;;;;;;28.02;19.45;;;;;;;10.12;97.51;101571.97;5095897;28;20039;-73
2021/03/20 10:04:13;;;;;;;21.98;16.20;;;;;;;10.61;89.72;101560.47;5069696;28;20089;-74
2021/03/20 10:07:21;;;;;;;28.05;20.10;;;;;;;11.38;90.74;101563.53;5082086;28;20031;-73
2021/03/20 10:10:15;;;;;;;30.63;20.08;;;;;;;11.06;91.29;101564.63;5096676;28;20093;-73
2021/03/20 10:13:14;;;;;;;33.10;22.40;;;;;;;11.97;89.87;101571.78;5553639;22;20093;-73
2021/03/20 10:16:03;;;;;;;31.35;20.85;;;;;;;11.26;88.54;101579.38;5101710;28;20024;-73
2021/03/20 10:18:51;;;;;;;30.15;21.45;;;;;;;10.24;95.56;101576.34;5117314;28;20096;-73
2021/03/20 10:21:38;;;;;;;33.30;23.00;;;;;;;11.23;96.27;101561.00;5117583;28;20023;-71
2021/03/20 10:24:26;;;;;;;37.00;23.77;;;;;;;11.51;95.08;101565.19;5117308;28;20054;-73
2021/03/20 10:27:25;;;;;;;31.77;21.38;;;;;;;11.10;96.11;101569.84;5116232;28;20446;-73
2021/03/20 10:30:23;;;;;;;31.05;21.23;;;;;;;11.00;92.92;101572.50;5100996;28;20389;-73
2021/03/20 10:33:14;;;;;;;32.75;21.98;;;;;;;11.72;89.55;101559.78;5115663;28;20031;-72
2021/03/20 10:36:15;;;;;;;36.30;21.92;;;;;;;11.90;89.86;101562.22;5116103;28;20408;-73
2021/03/20 10:39:03;;;;;;;33.15;21.98;;;;;;;11.70;89.84;101571.19;5115554;28;20050;-73
2021/03/20 10:41:52;;;;;;;28.80;20.17;;;;;;;11.80;89.19;101570.19;5117048;28;20070;-73
2021/03/20 10:44:44;;;;;;;34.05;22.23;;;;;;;12.10;85.60;101559.44;5100592;28;20034;-73
2021/03/20 10:47:33;;;;;;;28.92;20.55;;;;;;;12.20;84.26;101546.16;5117186;28;20031;-73
2021/03/20 10:50:21;;;;;;;28.02;19.40;;;;;;;11.95;81.45;101555.19;5115566;28;20031;-73
2021/03/20 10:53:24;;;;;;;36.13;21.30;;;;;;;11.83;80.23;101562.31;5115254;28;20024;-73
2021/03/20 10:56:31;;;;;;;29.00;19.98;;;;;;;11.62;81.83;101555.47;5116170;28;20031;-74
2021/03/20 10:59:40;;;;;;;26.73;17.63;;;;;;;12.18;78.93;101553.19;5116616;28;20035;-72
2021/03/20 11:02:30;;;;;;;28.80;18.65;;;;;;;12.26;77.97;101545.25;5115855;28;20102;-71
2021/03/20 11:05:21;;;;;;;24.80;17.90;;;;;;;12.68;76.44;101524.56;5115432;28;20019;-72
2021/03/20 11:08:28;;;;;;;27.08;17.58;;;;;;;13.05;74.60;101520.56;5115361;28;20146;-73
2021/03/20 11:11:14;;;;;;;26.25;18.48;;;;;;;12.43;74.38;101517.00;5114882;28;20053;-73
2021/03/20 11:14:08;;;;;;;23.45;17.33;;;;;;;12.37;74.11;101523.19;5116332;28;20123;-73
2021/03/20 11:16:59;;;;;;;24.95;18.75;;;;;;;12.14;74.92;101517.31;5116310;28;20485;-73
2021/03/20 11:19:47;;;;;;;27.38;18.83;;;;;;;12.39;75.02;101500.41;5115605;28;20034;-72
2021/03/20 11:22:38;;;;;;;23.08;18.17;;;;;;;12.08;71.85;101504.28;5101090;28;20367;-73
2021/03/20 11:25:50;;;;;;;22.95;16.58;;;;;;;12.72;72.33;101499.09;5121333;28;20031;-73
2021/03/20 11:28:37;;;;;;;22.63;16.38;;;;;;;12.35;70.86;101497.81;5115935;28;20404;-73
2021/03/20 11:31:23;;;;;;;18.63;14.82;;;;;;;12.20;69.60;101506.75;5101662;28;20032;-71
2021/03/20 11:34:15;;;;;;;20.27;16.05;;;;;;;12.48;68.43;101495.03;5115307;28;20031;-72
2021/03/20 11:37:02;;;;;;;22.52;16.92;;;;;;;12.38;69.52;101505.69;5116261;28;20451;-74
2021/03/20 11:39:56;;;;;;;20.23;15.40;;;;;;;11.99;68.22;101495.63;5116668;28;20028;-73
2021/03/20 11:42:42;;;;;;;21.58;15.50;;;;;;;12.71;68.54;101497.34;5100259;28;20102;-73
2021/03/20 11:45:42;;;;;;;22.88;16.00;;;;;;;12.68;66.25;101490.38;5115172;28;20057;-73
2021/03/20 11:48:38;;;;;;;20.92;14.50;;;;;;;12.93;66.39;101489.13;5116042;28;20040;-73
2021/03/20 11:51:29;;;;;;;19.90;14.77;;;;;;;12.66;65.30;101491.28;5099556;28;20428;-73
2021/03/20 11:54:22;;;;;;;21.73;15.05;;;;;;;13.02;64.87;101483.75;5115554;28;20313;-73
2021/03/20 11:57:30;;;;;;;20.77;14.50;;;;;;;13.12;67.82;101472.22;5099338;28;20110;-73
2021/03/20 12:00:36;;;;;;;21.08;15.35;;;;;;;13.11;65.72;101473.09;5115101;28;20078;-72
2021/03/20 12:03:22;;;;;;;15.50;12.75;;;;;;;13.21;63.90;101469.44;5114646;28;20171;-72
2021/03/20 12:06:19;;;;;;;17.15;12.55;;;;;;;13.11;64.81;101472.25;5100121;28;20031;-73
2021/03/20 12:09:23;;;;;;;16.77;13.55;;;;;;;13.11;64.68;101473.09;5113987;28;20024;-73
2021/03/20 12:12:09;;;;;;;16.20;13.07;;;;;;;12.82;65.95;101467.38;5115452;28;20463;-73
2021/03/20 12:14:55;;;;;;;16.95;13.27;;;;;;;12.09;69.45;101471.88;5113996;28;20043;-72
2021/03/20 12:17:47;;;;;;;17.90;13.70;;;;;;;11.82;70.72;101466.06;5099865;28;20104;-72
2021/03/20 12:20:40;;;;;;;16.90;13.15;;;;;;;11.77;68.75;101460.00;5115976;27;20031;-73
2021/03/20 12:23:27;;;;;;;16.63;12.73;;;;;;;11.87;67.44;101456.38;5114624;28;20027;-73
2021/03/20 12:26:26;;;;;;;16.25;12.75;;;;;;;12.04;70.54;101454.41;5115352;28;20031;-73
2021/03/20 12:29:33;;;;;;;19.20;13.45;;;;;;;12.39;67.33;101447.84;5114805;28;20028;-73
2021/03/20 12:32:50;;;;;;;18.02;13.07;;;;;;;12.35;67.26;101443.53;5113597;28;20016;-73
2021/03/20 12:35:41;;;;;;;21.05;13.27;;;;;;;12.24;67.97;101448.03;5113620;28;20501;-73
2021/03/20 12:38:29;;;;;;;18.30;12.38;;;;;;;12.27;66.28;101441.88;5114992;28;20027;-72
2021/03/20 12:41:17;;;;;;;16.30;12.85;;;;;;;11.87;69.45;101440.63;5099041;28;20023;-73
2021/03/20 12:44:05;;;;;;;16.27;12.65;;;;;;;12.25;69.93;101434.00;5114964;28;20023;-73
2021/03/20 12:46:55;;;;;;;19.95;14.68;;;;;;;12.40;72.19;101427.69;5113709;28;20027;-73
2021/03/20 12:49:42;;;;;;;19.05;13.77;;;;;;;11.92;72.86;101434.44;5114699;28;20400;-73
2021/03/20 12:52:30;;;;;;;17.08;13.45;;;;;;;11.60;72.02;101438.25;5114748;28;20404;-73
2021/03/20 12:55:16;;;;;;;19.50;13.68;;;;;;;11.32;75.51;101442.00;5114321;28;20399;-73
2021/03/20 12:58:02;;;;;;;17.70;14.45;;;;;;;11.59;77.64;101434.75;5113803;28;20045;-72
2021/03/20 13:00:48;;;;;;;18.08;13.40;;;;;;;12.32;75.54;101430.41;5114642;28;20024;-74
2021/03/20 13:03:35;;;;;;;17.85;13.75;;;;;;;12.04;76.29;101434.28;5114472;28;20020;-73
2021/03/20 13:06:21;;;;;;;19.25;14.27;;;;;;;12.14;77.26;101433.25;5114598;28;20023;-73
2021/03/20 13:09:07;;;;;;;17.90;13.63;;;;;;;10.93;81.25;101435.34;5113206;28;20032;-73
2021/03/20 13:11:54;;;;;;;18.20;13.50;;;;;;;11.82;81.26;101432.78;5114042;28;20451;-73
2021/03/20 13:14:41;;;;;;;18.45;13.45;;;;;;;12.45;79.64;101436.38;5113875;28;20051;-73
2021/03/20 13:17:27;;;;;;;19.90;13.57;;;;;;;11.86;78.90;101431.84;5118708;28;20051;-73